< < Back
Terminal Aerodrome Forecast


Current Version              Previous Versions:   1  2  3  4  5  6  7  8  9  

Terminal Aerodrome Forecast

165
FTUS42 KJAX 291909 AAC
TAFJAX
TAF AMD
KJAX 291909Z 2919/3018 08009KT P6SM VCTS SCT020CB BKN035
      TEMPO 2921/2924 3SM TSRA BR BKN020CB
     FM300300 08004KT P6SM VCSH SCT035 BKN100
     FM301600 09010KT P6SM VCTS BKN035CB=

Latest METAR

262
SAUS80 KWBC 292000
MTRJAX
METAR KJAX 291956Z 09011KT 10SM TS BKN025CB BKN080 OVC250 29/23 A3007
RMK AO2 TSB11 SLP181 OCNL LTGIC VC SW TS VC SW MOV NW
T02890233


USA.gov is the U.S. government's official web portal to all federal, state and local government web resources and services.